Terminal Aerodrome Forecast
Issued by NWS Burlington, VT

Home | Current Version | Previous Version | Text Only | Print | Product List | Glossary On
Versions: 1 2 3 4 5 6 7 8 9 10 11 12
000
FTUS41 KBTV 272300
TAFBTV
TAF
KBTV 272328Z 2800/2824 36008KT P6SM BKN050 OVC060
     FM281400 33009KT P6SM SCT050 BKN070
     FM281700 33012G20KT P6SM BKN045=

USA.gov is the U.S. government's official web portal to all federal, state and local government web resources and services.